createdAt,value
2023-03-15T00:01:54.576Z,1.92
2023-03-15T00:03:59.289Z,2.10
2023-03-15T00:06:03.029Z,1.13
2023-03-15T00:08:07.574Z,2.25
2023-03-15T00:10:12.084Z,1.98
2023-03-15T00:12:13.616Z,3.03
2023-03-15T00:14:15.535Z,2.20
2023-03-15T00:16:18.302Z,2.25
2023-03-15T00:18:29.018Z,1.98
2023-03-15T00:20:31.225Z,2.55
2023-03-15T00:22:35.506Z,2.08
2023-03-15T00:24:37.052Z,5.35
2023-03-15T00:26:39.149Z,3.35
2023-03-15T00:28:43.748Z,2.28
2023-03-15T00:30:47.761Z,3.05
2023-03-15T00:32:53.921Z,1.80
2023-03-15T00:34:55.890Z,3.40
2023-03-15T00:36:57.764Z,2.67
2023-03-15T00:38:59.245Z,2.95
2023-03-15T00:41:15.532Z,2.33
2023-03-15T00:43:17.862Z,3.20
2023-03-15T00:45:21.739Z,3.83
2023-03-15T00:47:23.300Z,2.90
2023-03-15T00:49:27.263Z,1.92
2023-03-15T00:51:29.888Z,3.65
2023-03-15T00:53:31.517Z,2.88
2023-03-15T00:55:38.849Z,4.13
2023-03-15T00:57:41.443Z,2.97
2023-03-15T00:59:45.005Z,2.22
2023-03-15T01:01:46.671Z,2.17
2023-03-15T01:03:51.387Z,1.55
2023-03-15T01:05:52.858Z,1.48
2023-03-15T01:07:54.400Z,2.55
2023-03-15T01:09:55.895Z,1.63
2023-03-15T01:12:01.409Z,2.05
2023-03-15T01:14:06.061Z,3.17
2023-03-15T01:16:09.509Z,2.15
2023-03-15T01:18:11.010Z,2.75
2023-03-15T01:20:14.020Z,1.88
2023-03-15T01:22:17.579Z,2.08
2023-03-15T01:24:19.091Z,2.15
2023-03-15T01:26:26.675Z,3.22
2023-03-15T01:28:28.990Z,2.95
2023-03-15T01:30:32.738Z,2.10
2023-03-15T01:32:34.521Z,1.83
2023-03-15T01:34:39.819Z,2.20
2023-03-15T01:36:52.386Z,1.35
2023-03-15T01:38:57.265Z,2.08
2023-03-15T01:41:05.026Z,1.90
2023-03-15T01:43:06.436Z,3.30
2023-03-15T01:45:45.772Z,2.35
2023-03-15T01:47:47.632Z,3.50
2023-03-15T01:49:54.304Z,1.83
2023-03-15T01:51:56.818Z,2.15
2023-03-15T01:54:13.345Z,3.08
2023-03-15T01:56:15.762Z,1.83
2023-03-15T01:58:17.482Z,2.60
2023-03-15T02:00:21.396Z,3.70
2023-03-15T02:02:29.250Z,3.67
2023-03-15T02:04:36.286Z,5.10
2023-03-15T02:06:38.415Z,2.17
2023-03-15T02:08:46.107Z,3.25
2023-03-15T02:10:51.804Z,3.03
2023-03-15T02:12:56.160Z,3.13
2023-03-15T02:15:04.790Z,3.20
2023-03-15T02:17:07.316Z,2.03
2023-03-15T02:19:20.413Z,3.15
2023-03-15T02:21:49.056Z,2.75
2023-03-15T02:24:04.364Z,1.30
2023-03-15T02:26:28.266Z,2.17
2023-03-15T02:28:33.401Z,3.78
2023-03-15T02:30:35.477Z,1.08
2023-03-15T02:32:37.937Z,2.65
2023-03-15T02:34:39.516Z,3.47
2023-03-15T02:36:47.114Z,2.13
2023-03-15T02:38:50.021Z,3.17
2023-03-15T02:40:53.288Z,2.20
2023-03-15T02:43:03.227Z,2.97
2023-03-15T02:45:05.342Z,3.45
2023-03-15T02:47:22.360Z,2.50
2023-03-15T02:49:27.955Z,2.58
2023-03-15T02:51:30.053Z,3.83
2023-03-15T02:53:32.718Z,1.08
2023-03-15T02:55:34.319Z,2.05
2023-03-15T02:57:36.318Z,2.45
2023-03-15T02:59:38.971Z,3.83
2023-03-15T03:01:40.832Z,2.10
2023-03-15T03:03:46.018Z,3.38
2023-03-15T03:05:48.621Z,2.13
2023-03-15T03:07:50.906Z,3.92
2023-03-15T03:09:52.850Z,3.45
2023-03-15T03:12:00.355Z,2.75
2023-03-15T03:14:03.038Z,1.98
2023-03-15T03:16:04.921Z,2.67
2023-03-15T03:18:09.868Z,3.13
2023-03-15T03:20:13.618Z,3.22
2023-03-15T03:22:19.783Z,2.60
2023-03-15T03:24:21.686Z,2.60
2023-03-15T03:26:27.911Z,2.28
2023-03-15T03:28:33.164Z,4.78
2023-03-15T03:30:36.447Z,2.95
2023-03-15T03:32:40.345Z,2.78
2023-03-15T03:34:42.172Z,5.10
2023-03-15T03:36:45.491Z,3.70
2023-03-15T03:38:51.481Z,3.58
2023-03-15T03:40:53.335Z,2.67
2023-03-15T03:42:56.921Z,3.95
2023-03-15T03:44:59.003Z,2.85
2023-03-15T03:47:06.676Z,1.55
2023-03-15T03:49:10.272Z,2.85
2023-03-15T03:51:11.942Z,4.90
2023-03-15T03:53:13.753Z,2.47
2023-03-15T03:55:15.419Z,3.67
2023-03-15T03:57:18.389Z,2.45
2023-03-15T03:59:19.895Z,3.05
2023-03-15T04:01:30.373Z,3.85
2023-03-15T04:03:32.428Z,2.83
2023-03-15T04:05:52.248Z,2.40
2023-03-15T04:07:57.873Z,2.80
2023-03-15T04:10:06.531Z,1.65
2023-03-15T04:12:12.610Z,3.20
2023-03-15T04:14:16.281Z,2.23
2023-03-15T04:16:20.554Z,2.97
2023-03-15T04:18:40.424Z,3.80
2023-03-15T04:20:48.429Z,4.73
2023-03-15T04:22:53.275Z,3.72
2023-03-15T04:25:02.270Z,4.93
2023-03-15T04:27:22.582Z,2.47
2023-03-15T04:29:42.237Z,2.43
2023-03-15T04:31:53.185Z,3.90
2023-03-15T04:34:07.938Z,5.45
2023-03-15T04:36:19.836Z,3.60
2023-03-15T04:38:46.492Z,5.50
2023-03-15T04:41:14.694Z,2.20
2023-03-15T04:43:46.236Z,3.23
2023-03-15T04:46:04.375Z,5.07
2023-03-15T04:48:25.652Z,3.97
2023-03-15T04:50:41.571Z,4.70
2023-03-15T04:52:59.591Z,5.63
2023-03-15T04:55:22.431Z,4.60
2023-03-15T04:57:44.286Z,4.10
2023-03-15T05:00:10.203Z,3.73
2023-03-15T05:02:35.856Z,3.83
2023-03-15T05:04:44.775Z,4.68
2023-03-15T05:07:00.609Z,4.53
2023-03-15T05:09:25.069Z,4.97
2023-03-15T05:11:40.646Z,4.83
2023-03-15T05:13:56.234Z,4.77
2023-03-15T05:16:12.791Z,5.20
2023-03-15T05:18:17.062Z,5.10
2023-03-15T05:20:40.941Z,4.53
2023-03-15T05:23:06.056Z,6.80
2023-03-15T05:25:16.382Z,4.70
2023-03-15T05:27:37.397Z,7.63
2023-03-15T05:29:46.002Z,4.33
2023-03-15T05:32:07.697Z,6.20
2023-03-15T05:34:32.367Z,4.10
2023-03-15T05:36:57.166Z,6.03
2023-03-15T05:39:18.814Z,7.93
2023-03-15T05:41:32.334Z,4.30
2023-03-15T05:43:52.565Z,6.07
2023-03-15T05:46:13.094Z,6.00
2023-03-15T05:48:33.353Z,5.83
2023-03-15T05:51:03.175Z,5.83
2023-03-15T05:53:28.336Z,5.30
2023-03-15T05:55:47.150Z,4.03
2023-03-15T05:58:09.955Z,6.07
2023-03-15T06:00:12.940Z,6.80
2023-03-15T06:02:17.465Z,6.53
2023-03-15T06:04:41.166Z,6.22
2023-03-15T06:06:45.030Z,5.60
2023-03-15T06:08:47.661Z,5.40
2023-03-15T06:10:49.126Z,7.97
2023-03-15T06:12:52.200Z,4.53
2023-03-15T06:14:53.945Z,6.60
2023-03-15T06:16:55.694Z,5.67
2023-03-15T06:19:01.062Z,5.27
2023-03-15T06:21:02.551Z,5.70
2023-03-15T06:23:04.056Z,4.40
2023-03-15T06:25:14.041Z,7.40
2023-03-15T06:27:15.616Z,5.73
2023-03-15T06:29:17.308Z,5.37
2023-03-15T06:31:21.705Z,5.83
2023-03-15T06:33:30.176Z,7.00
2023-03-15T06:35:31.889Z,7.72
2023-03-15T06:37:38.719Z,5.20
2023-03-15T06:39:40.440Z,5.13
2023-03-15T06:41:42.372Z,4.33
2023-03-15T06:43:49.502Z,4.53
2023-03-15T06:45:53.328Z,6.10
2023-03-15T06:47:55.207Z,5.77
2023-03-15T06:49:57.031Z,5.90
2023-03-15T06:51:58.945Z,4.60
2023-03-15T06:54:00.576Z,3.63
2023-03-15T06:56:04.784Z,5.87
2023-03-15T06:58:12.566Z,5.10
2023-03-15T07:00:15.054Z,4.43
2023-03-15T07:02:18.693Z,5.60
2023-03-15T07:04:21.767Z,4.40
2023-03-15T07:06:23.294Z,4.77
2023-03-15T07:08:28.069Z,5.30
2023-03-15T07:10:29.793Z,6.63
2023-03-15T07:12:31.390Z,4.63
2023-03-15T07:14:35.890Z,4.63
2023-03-15T07:16:38.706Z,3.80
2023-03-15T07:18:40.229Z,6.37
2023-03-15T07:20:41.912Z,5.97
2023-03-15T07:22:45.652Z,6.35
2023-03-15T07:24:47.064Z,5.15
2023-03-15T07:26:53.236Z,5.15
2023-03-15T07:28:54.677Z,8.13
2023-03-15T07:30:58.631Z,5.35
2023-03-15T07:33:00.267Z,4.85
2023-03-15T07:35:01.883Z,4.32
2023-03-15T07:37:03.766Z,6.65
2023-03-15T07:39:05.208Z,4.65
2023-03-15T07:41:09.074Z,6.47
2023-03-15T07:43:12.775Z,6.57
2023-03-15T07:45:17.791Z,7.07
2023-03-15T07:47:19.297Z,4.90
2023-03-15T07:49:21.048Z,4.50
2023-03-15T07:51:22.659Z,5.72
2023-03-15T07:53:24.546Z,5.10
2023-03-15T07:55:26.416Z,6.00
2023-03-15T07:57:29.003Z,4.18
2023-03-15T07:59:30.708Z,5.72
2023-03-15T08:01:32.148Z,4.68
2023-03-15T08:03:33.645Z,3.70
2023-03-15T08:05:44.608Z,7.22
2023-03-15T08:07:47.349Z,3.90
2023-03-15T08:09:51.735Z,6.80
2023-03-15T08:11:53.446Z,6.15
2023-03-15T08:13:54.877Z,6.22
2023-03-15T08:15:56.378Z,4.70
2023-03-15T08:17:59.085Z,5.63
2023-03-15T08:20:05.784Z,5.38
2023-03-15T08:22:07.687Z,4.22
2023-03-15T08:24:09.364Z,4.30
2023-03-15T08:26:11.123Z,3.50
2023-03-15T08:28:12.896Z,6.15
2023-03-15T08:30:19.462Z,4.97
2023-03-15T08:32:21.705Z,5.13
2023-03-15T08:34:25.914Z,6.90
2023-03-15T08:36:27.682Z,4.50
2023-03-15T08:38:29.903Z,4.00
2023-03-15T08:40:31.822Z,4.28
2023-03-15T08:42:33.353Z,5.60
2023-03-15T08:44:36.432Z,5.18
2023-03-15T08:46:39.272Z,3.65
2023-03-15T08:48:41.122Z,5.57
2023-03-15T08:50:48.826Z,4.00
2023-03-15T08:52:50.818Z,6.90
2023-03-15T08:54:52.415Z,3.70
2023-03-15T08:56:54.008Z,4.45
2023-03-15T08:58:55.685Z,5.03
2023-03-15T09:00:57.861Z,4.78
2023-03-15T09:02:59.419Z,5.18
2023-03-15T09:05:00.873Z,3.92
2023-03-15T09:07:02.356Z,4.70
2023-03-15T09:09:03.830Z,4.75
2023-03-15T09:11:05.530Z,3.83
2023-03-15T09:13:07.098Z,3.95
2023-03-15T09:15:12.525Z,4.90
2023-03-15T09:17:14.364Z,3.80
2023-03-15T09:19:15.948Z,5.95
2023-03-15T09:21:17.590Z,5.10
2023-03-15T09:23:19.331Z,4.00
2023-03-15T09:25:21.614Z,4.13
2023-03-15T09:27:25.231Z,4.68
2023-03-15T09:29:26.721Z,4.13
2023-03-15T09:31:28.386Z,2.95
2023-03-15T09:33:29.850Z,4.93
2023-03-15T09:35:31.498Z,4.10
2023-03-15T09:37:34.087Z,2.35
2023-03-15T09:39:35.746Z,4.78
2023-03-15T09:41:46.033Z,3.92
2023-03-15T09:44:01.879Z,2.38
2023-03-15T09:46:09.487Z,3.67
2023-03-15T09:48:39.367Z,3.70
2023-03-15T09:50:53.684Z,4.25
2023-03-15T09:53:01.066Z,3.30
2023-03-15T09:55:22.205Z,3.72
2023-03-15T09:57:31.875Z,4.68
2023-03-15T09:59:37.908Z,3.15
2023-03-15T10:01:41.514Z,4.15
2023-03-15T10:04:11.187Z,2.42
2023-03-15T10:09:34.462Z,2.88
2023-03-15T10:12:21.139Z,5.13
2023-03-15T10:14:54.839Z,4.00
2023-03-15T10:17:00.224Z,5.30
2023-03-15T10:19:40.115Z,6.53
2023-03-15T10:21:49.952Z,5.93
2023-03-15T10:23:59.888Z,3.50
2023-03-15T10:26:11.652Z,4.88
2023-03-15T10:28:26.081Z,3.63
2023-03-15T10:30:30.986Z,2.90
2023-03-15T10:32:38.415Z,5.10
2023-03-15T10:34:40.041Z,5.40
2023-03-15T10:36:46.876Z,7.43
2023-03-15T10:38:50.947Z,9.27
2023-03-15T10:40:59.406Z,10.63
2023-03-15T10:43:03.381Z,6.82
2023-03-15T10:45:26.435Z,6.72
2023-03-15T10:47:28.189Z,5.43
2023-03-15T10:49:37.731Z,4.35
2023-03-15T10:51:48.287Z,5.05
2023-03-15T10:53:59.274Z,4.97
2023-03-15T10:56:06.702Z,3.88
2023-03-15T10:58:17.190Z,3.03
2023-03-15T11:00:32.226Z,3.80
2023-03-15T11:02:33.942Z,3.97
2023-03-15T11:04:43.346Z,4.25
2023-03-15T11:06:47.226Z,3.88
2023-03-15T11:08:48.704Z,6.55
2023-03-15T11:10:58.630Z,5.05
2023-03-15T11:13:10.919Z,4.93
2023-03-15T11:15:17.829Z,5.15
2023-03-15T11:17:30.627Z,5.18
2023-03-15T11:19:42.177Z,4.50
2023-03-15T11:21:46.382Z,3.60
2023-03-15T11:23:49.448Z,4.72
2023-03-15T11:25:51.966Z,4.00
2023-03-15T11:27:54.353Z,3.53
2023-03-15T11:29:59.704Z,4.50
2023-03-15T11:32:10.767Z,4.05
2023-03-15T11:34:36.184Z,5.95
2023-03-15T11:36:44.084Z,4.75
2023-03-15T11:38:46.422Z,4.60
2023-03-15T11:40:56.450Z,3.20
2023-03-15T11:43:28.901Z,3.22
2023-03-15T11:45:45.372Z,3.53
2023-03-15T11:48:20.616Z,3.35
2023-03-15T11:50:22.379Z,4.50
2023-03-15T11:52:29.470Z,4.43
2023-03-15T11:54:32.447Z,3.92
2023-03-15T11:56:43.350Z,3.25
2023-03-15T11:58:45.015Z,3.30
2023-03-15T12:00:53.882Z,3.35
2023-03-15T12:03:26.246Z,3.05
2023-03-15T12:05:45.021Z,2.75
2023-03-15T12:08:16.814Z,3.33
2023-03-15T12:10:29.586Z,2.88
2023-03-15T12:12:31.061Z,2.10
2023-03-15T12:14:35.551Z,3.10
2023-03-15T12:16:42.625Z,2.15
2023-03-15T12:18:45.524Z,3.30
2023-03-15T12:21:12.345Z,4.50
2023-03-15T12:23:19.824Z,2.85
2023-03-15T12:25:25.393Z,1.73
2023-03-15T12:27:28.564Z,3.30
2023-03-15T12:29:32.983Z,2.17
2023-03-15T12:32:03.532Z,2.25
2023-03-15T12:34:07.879Z,2.75
2023-03-15T12:36:18.314Z,3.05
2023-03-15T12:38:23.024Z,3.17
2023-03-15T12:40:53.808Z,2.00
2023-03-15T12:42:57.329Z,1.58
2023-03-15T12:45:17.367Z,1.98
2023-03-15T12:47:18.933Z,3.72
2023-03-15T12:49:23.190Z,4.00
2023-03-15T12:52:01.871Z,1.90
2023-03-15T12:54:04.368Z,2.40
2023-03-15T12:56:17.816Z,2.92
2023-03-15T12:58:24.629Z,1.95
2023-03-15T13:00:30.269Z,1.75
2023-03-15T13:02:48.958Z,2.95
2023-03-15T13:04:50.709Z,1.40
2023-03-15T13:07:09.968Z,2.55
2023-03-15T13:09:38.547Z,2.22
2023-03-15T13:11:57.969Z,1.58
2023-03-15T13:14:16.579Z,1.17
2023-03-15T13:16:44.482Z,1.85
2023-03-15T13:18:58.178Z,1.23
2023-03-15T13:21:16.847Z,1.50
2023-03-15T13:23:26.120Z,1.52
2023-03-15T13:25:37.320Z,2.70
2023-03-15T13:27:54.094Z,1.42
2023-03-15T13:29:56.202Z,2.22
2023-03-15T13:32:20.202Z,1.73
2023-03-15T13:34:24.119Z,1.88
2023-03-15T13:36:44.327Z,1.70
2023-03-15T13:38:50.785Z,1.48
2023-03-15T13:40:56.172Z,2.60
2023-03-15T13:43:01.141Z,2.70
2023-03-15T13:45:09.041Z,2.75
2023-03-15T13:47:21.855Z,1.42
2023-03-15T13:49:24.924Z,2.00
2023-03-15T13:51:36.319Z,1.85
2023-03-15T13:53:49.543Z,1.90
2023-03-15T13:55:53.521Z,3.67
2023-03-15T13:58:00.067Z,3.65
2023-03-15T14:00:17.229Z,2.03
2023-03-15T14:02:46.782Z,1.58
2023-03-15T14:04:53.322Z,1.60
2023-03-15T14:07:21.228Z,1.85
2023-03-15T14:09:25.980Z,1.60
2023-03-15T14:11:38.241Z,2.10
2023-03-15T14:14:02.948Z,1.48
2023-03-15T14:16:07.411Z,1.17
2023-03-15T14:18:08.937Z,1.65
2023-03-15T14:20:17.790Z,2.33
2023-03-15T14:22:19.569Z,1.75
2023-03-15T14:24:31.148Z,1.92
2023-03-15T14:26:33.838Z,2.72
2023-03-15T14:28:38.674Z,2.35
2023-03-15T14:30:40.605Z,1.42
2023-03-15T14:32:52.915Z,2.85
2023-03-15T14:35:04.452Z,1.55
2023-03-15T14:37:32.477Z,1.40
2023-03-15T14:39:34.204Z,2.05
2023-03-15T14:41:38.694Z,1.38
2023-03-15T14:43:40.247Z,2.22
2023-03-15T14:45:45.322Z,2.33
2023-03-15T14:47:56.726Z,3.03
2023-03-15T14:50:04.913Z,2.38
2023-03-15T14:52:07.192Z,1.75
2023-03-15T14:54:13.195Z,1.83
2023-03-15T14:56:15.367Z,1.88
2023-03-15T14:58:22.261Z,2.10
2023-03-15T15:00:24.810Z,2.30
2023-03-15T15:02:26.340Z,1.40
2023-03-15T15:04:34.130Z,1.83
2023-03-15T15:06:37.934Z,1.40
2023-03-15T15:08:42.987Z,1.13
2023-03-15T15:10:49.773Z,1.67
2023-03-15T15:13:04.962Z,1.50
2023-03-15T15:15:19.550Z,1.40
2023-03-15T15:17:21.212Z,1.08
2023-03-15T15:19:25.062Z,2.30
2023-03-15T15:21:33.155Z,1.30
2023-03-15T15:23:56.928Z,3.05
2023-03-15T15:26:02.122Z,3.33
2023-03-15T15:28:03.817Z,5.00
2023-03-15T15:30:06.190Z,5.63
2023-03-15T15:32:07.826Z,6.30
2023-03-15T15:34:12.740Z,7.70
2023-03-15T15:36:23.649Z,7.63
2023-03-15T15:38:32.423Z,6.38
2023-03-15T15:40:36.787Z,5.65
2023-03-15T15:42:38.344Z,4.45
2023-03-15T15:44:39.868Z,3.55
2023-03-15T15:46:41.615Z,3.42
2023-03-15T15:48:46.289Z,1.50
2023-03-15T15:50:47.999Z,6.63
2023-03-15T15:52:52.220Z,4.15
2023-03-15T15:54:53.924Z,2.13
2023-03-15T15:57:00.529Z,1.48
2023-03-15T15:59:04.647Z,0.77
2023-03-15T16:01:06.239Z,0.68
2023-03-15T16:03:17.398Z,0.90
2023-03-15T16:05:25.252Z,1.42
2023-03-15T16:07:26.775Z,1.02
2023-03-15T16:09:30.641Z,1.30
2023-03-15T16:11:37.061Z,1.10
2023-03-15T16:13:43.591Z,1.20
2023-03-15T16:15:45.132Z,0.80
2023-03-15T16:17:50.210Z,1.20
2023-03-15T16:20:06.810Z,2.05
2023-03-15T16:22:08.608Z,1.52
2023-03-15T16:24:21.355Z,1.65
2023-03-15T16:26:28.659Z,1.75
2023-03-15T16:28:32.979Z,1.67
2023-03-15T16:30:37.165Z,1.10
2023-03-15T16:32:44.441Z,1.15
2023-03-15T16:34:54.612Z,1.15
2023-03-15T16:36:56.152Z,2.10
2023-03-15T16:38:57.850Z,2.13
2023-03-15T16:41:00.867Z,1.70
2023-03-15T16:43:04.410Z,2.40
2023-03-15T16:45:12.541Z,2.13
2023-03-15T16:47:15.330Z,1.83
2023-03-15T16:49:16.973Z,1.17
2023-03-15T16:51:19.106Z,0.90
2023-03-15T16:53:20.902Z,1.20
2023-03-15T16:55:29.083Z,1.48
2023-03-15T16:57:30.586Z,1.67
2023-03-15T16:59:32.152Z,1.50
2023-03-15T17:01:34.500Z,1.80
2023-03-15T17:03:37.041Z,3.20
2023-03-15T17:05:42.848Z,3.58
2023-03-15T17:07:46.980Z,3.85
2023-03-15T17:09:50.382Z,2.65
2023-03-15T17:11:52.376Z,2.17
2023-03-15T17:13:53.960Z,2.42
2023-03-15T17:15:55.465Z,2.03
2023-03-15T17:18:03.253Z,2.20
2023-03-15T17:20:14.135Z,2.88
2023-03-15T17:22:20.609Z,2.08
2023-03-15T17:24:22.554Z,1.73
2023-03-15T17:26:29.551Z,2.17
2023-03-15T17:28:31.068Z,2.15
2023-03-15T17:30:38.831Z,2.95
2023-03-15T17:32:41.615Z,2.20
2023-03-15T17:34:47.082Z,1.80
2023-03-15T17:36:48.683Z,1.25
2023-03-15T17:38:51.184Z,1.73
2023-03-15T17:40:58.387Z,3.42
2023-03-15T17:43:02.099Z,2.38
2023-03-15T17:45:20.857Z,2.58
2023-03-15T17:47:22.577Z,2.63
2023-03-15T17:49:25.136Z,3.22
2023-03-15T17:51:32.948Z,3.38
2023-03-15T17:53:34.420Z,3.15
2023-03-15T17:55:36.023Z,5.18
2023-03-15T17:57:40.461Z,3.35
2023-03-15T17:59:44.683Z,3.83
2023-03-15T18:01:48.649Z,4.43
2023-03-15T18:03:58.013Z,5.47
2023-03-15T18:06:01.474Z,2.92
2023-03-15T18:08:03.981Z,4.43
2023-03-15T18:10:06.017Z,2.67
2023-03-15T18:12:11.416Z,2.83
2023-03-15T18:14:15.428Z,2.00
2023-03-15T18:16:18.807Z,1.40
2023-03-15T18:18:20.554Z,1.83
2023-03-15T18:20:26.800Z,2.00
2023-03-15T18:22:32.644Z,1.75
2023-03-15T18:24:34.469Z,1.63
2023-03-15T18:26:37.077Z,2.10
2023-03-15T18:28:42.681Z,1.67
2023-03-15T18:30:45.282Z,1.80
2023-03-15T18:32:47.379Z,2.00
2023-03-15T18:34:50.190Z,1.33
2023-03-15T18:36:51.834Z,1.70
2023-03-15T18:38:54.599Z,1.67
2023-03-15T18:40:57.449Z,2.67
2023-03-15T18:43:00.246Z,2.87
2023-03-15T18:45:02.491Z,2.63
2023-03-15T18:47:07.980Z,3.27
2023-03-15T18:49:10.135Z,3.80
2023-03-15T18:51:25.787Z,3.17
2023-03-15T18:53:27.406Z,3.83
2023-03-15T18:55:28.897Z,4.03
2023-03-15T18:57:30.804Z,4.13
2023-03-15T18:59:32.508Z,4.43
2023-03-15T19:01:34.287Z,3.93
2023-03-15T19:03:36.469Z,3.20
2023-03-15T19:05:38.417Z,4.20
2023-03-15T19:07:41.046Z,4.57
2023-03-15T19:09:42.554Z,5.67
2023-03-15T19:11:44.164Z,5.80
2023-03-15T19:13:53.938Z,5.57
2023-03-15T19:15:55.890Z,6.53
2023-03-15T19:18:00.208Z,4.97
2023-03-15T19:20:01.785Z,5.70
2023-03-15T19:22:04.106Z,5.13
2023-03-15T19:24:08.954Z,6.03
2023-03-15T19:26:10.622Z,10.40
2023-03-15T19:28:12.480Z,7.37
2023-03-15T19:30:21.119Z,7.03
2023-03-15T19:32:24.332Z,4.70
2023-03-15T19:34:25.924Z,3.67
2023-03-15T19:36:27.529Z,4.77
2023-03-15T19:38:29.456Z,4.67
2023-03-15T19:40:30.956Z,11.90
2023-03-15T19:42:32.419Z,14.23
2023-03-15T19:44:36.182Z,11.93
2023-03-15T19:46:37.933Z,9.43
2023-03-15T19:48:40.009Z,12.47
2023-03-15T19:50:41.672Z,11.67
2023-03-15T19:52:46.983Z,12.40
2023-03-15T19:54:49.070Z,10.43
2023-03-15T19:56:51.189Z,12.23
2023-03-15T19:58:53.207Z,10.03
2023-03-15T20:00:58.431Z,11.00
2023-03-15T20:03:00.037Z,12.37
2023-03-15T20:05:01.631Z,10.97
2023-03-15T20:07:03.625Z,11.67
2023-03-15T20:09:05.923Z,10.33
2023-03-15T20:11:08.325Z,11.10
2023-03-15T20:13:10.789Z,14.20
2023-03-15T20:15:15.274Z,13.93
2023-03-15T20:17:16.947Z,15.60
2023-03-15T20:19:19.758Z,17.50
2023-03-15T20:21:21.938Z,14.87
2023-03-15T20:23:24.147Z,14.17
2023-03-15T20:25:25.833Z,12.23
2023-03-15T20:27:27.545Z,12.30
2023-03-15T20:29:31.618Z,12.23
2023-03-15T20:31:33.771Z,9.03
2023-03-15T20:33:35.461Z,10.90
2023-03-15T20:35:37.166Z,10.30
2023-03-15T20:37:41.330Z,10.20
2023-03-15T20:39:42.924Z,8.70
2023-03-15T20:41:47.158Z,7.47
2023-03-15T20:43:49.114Z,5.60
2023-03-15T20:45:55.940Z,7.23
2023-03-15T20:47:57.510Z,8.17
2023-03-15T20:50:00.157Z,7.00
2023-03-15T20:52:01.990Z,7.57
2023-03-15T20:54:04.970Z,8.67
2023-03-15T20:56:07.209Z,7.60
2023-03-15T20:58:08.783Z,7.50
2023-03-15T21:00:16.788Z,7.93
2023-03-15T21:02:18.344Z,7.37
2023-03-15T21:04:22.207Z,15.77
2023-03-15T21:06:23.976Z,25.23
2023-03-15T21:08:25.596Z,21.77
2023-03-15T21:10:27.137Z,17.00
2023-03-15T21:12:28.851Z,12.83
2023-03-15T21:14:30.421Z,12.57
2023-03-15T21:16:33.349Z,11.53
2023-03-15T21:18:36.039Z,11.20
2023-03-15T21:20:37.644Z,12.87
2023-03-15T21:22:41.539Z,10.97
2023-03-15T21:24:55.259Z,12.90
2023-03-15T21:26:57.898Z,15.10
2023-03-15T21:28:59.404Z,16.77
2023-03-15T21:31:01.100Z,15.70
2023-03-15T21:33:02.854Z,15.17
2023-03-15T21:35:05.219Z,15.17
2023-03-15T21:37:06.741Z,18.67
2023-03-15T21:39:08.334Z,12.90
2023-03-15T21:41:12.831Z,12.33
2023-03-15T21:43:14.590Z,13.40
2023-03-15T21:45:16.352Z,11.10
2023-03-15T21:47:18.156Z,9.97
2023-03-15T21:49:20.445Z,8.50
2023-03-15T21:51:22.312Z,7.10
2023-03-15T21:53:23.869Z,8.40
2023-03-15T21:55:27.952Z,9.40
2023-03-15T21:57:29.469Z,7.57
2023-03-15T21:59:30.936Z,8.40
2023-03-15T22:01:35.568Z,8.53
2023-03-15T22:03:37.303Z,9.10
2023-03-15T22:05:38.824Z,8.87
2023-03-15T22:07:42.046Z,11.27
2023-03-15T22:09:43.625Z,9.83
2023-03-15T22:11:45.319Z,8.33
2023-03-15T22:13:46.895Z,8.53
2023-03-15T22:15:48.443Z,9.63
2023-03-15T22:17:51.359Z,9.60
2023-03-15T22:19:55.801Z,8.87
2023-03-15T22:21:57.621Z,8.43
2023-03-15T22:23:59.149Z,9.03
2023-03-15T22:26:00.637Z,7.57
2023-03-15T22:28:02.276Z,9.83
2023-03-15T22:30:05.329Z,7.73
2023-03-15T22:32:07.757Z,7.53
2023-03-15T22:34:09.273Z,8.03
2023-03-15T22:36:13.498Z,7.77
2023-03-15T22:38:15.710Z,8.90
2023-03-15T22:40:18.615Z,9.37
2023-03-15T22:42:20.131Z,9.57
2023-03-15T22:44:21.735Z,11.67
2023-03-15T22:46:23.477Z,9.17
2023-03-15T22:48:26.025Z,9.60
2023-03-15T22:50:28.129Z,11.13
2023-03-15T22:52:29.782Z,9.60
2023-03-15T22:54:32.837Z,9.37
2023-03-15T22:56:34.292Z,9.53
2023-03-15T22:58:35.784Z,12.80
2023-03-15T23:00:37.253Z,11.93
2023-03-15T23:02:39.298Z,10.33
2023-03-15T23:04:41.038Z,9.37
2023-03-15T23:06:42.650Z,9.63
2023-03-15T23:08:44.488Z,12.93
2023-03-15T23:10:46.011Z,9.70
2023-03-15T23:12:47.550Z,10.73
2023-03-15T23:14:49.695Z,9.37
2023-03-15T23:16:52.250Z,11.97
2023-03-15T23:18:53.789Z,9.03
2023-03-15T23:21:07.004Z,9.53
2023-03-15T23:23:11.582Z,10.00
2023-03-15T23:25:15.141Z,8.73
2023-03-15T23:27:17.320Z,7.13
2023-03-15T23:29:18.749Z,7.20
2023-03-15T23:31:20.870Z,8.03
2023-03-15T23:33:24.810Z,6.77
2023-03-15T23:35:27.157Z,7.30
2023-03-15T23:37:31.523Z,7.43
2023-03-15T23:39:33.081Z,8.07
2023-03-15T23:41:36.468Z,10.13
2023-03-15T23:43:38.284Z,8.67
2023-03-15T23:45:39.674Z,9.67
2023-03-15T23:47:50.453Z,8.47
2023-03-15T23:49:52.147Z,10.10
2023-03-15T23:51:56.511Z,11.13
2023-03-15T23:53:59.350Z,15.17
2023-03-15T23:56:12.769Z,15.37
2023-03-15T23:58:14.436Z,18.20
